Terminal Aerodrome Forecast
Issued by NWS

Home | Current Version | Previous Version | Graphics & Text | Print | Product List | Glossary On
Versions: 1 2 3 4 5 6 7 8 9 10 11 12 13 14 15
227
FTUS43 KGRB 231721
TAFAUW
TAF
KAUW 231721Z 2318/2418 21010KT P6SM SCT060 SCT250
     FM240100 17004KT P6SM SCT250
     FM240900 13003KT P6SM SCT250
      TEMPO 2409/2413 5SM BR
     FM241400 19008KT P6SM FEW040 SCT250=

USA.gov is the U.S. government's official web portal to all federal, state and local government web resources and services.